Time;durP1;ratioP1;P1;durP2;ratioP2;P2;SDS_P1;SDS_P2;PMS_P1;PMS_P2;Temp;Humidity;BMP_temperature;BMP_pressure;BME280_temperature;BME280_humidity;BME280_pressure;Samples;Min_cycle;Max_cycle;Signal;HPM_P1;HPM_P2
2022/12/25 05:01:08;;;;;;;96.55;26.38;;;7.70;99.90;;;;;;6018421;23;1277115;-84
2022/12/25 05:03:38;;;;;;;91.75;28.20;;;7.70;99.90;;;;;;6075043;23;20015;-84
2022/12/25 05:06:05;;;;;;;101.72;26.52;;;7.80;99.90;;;;;;6099385;23;20069;-83
2022/12/25 05:08:32;;;;;;;79.50;25.35;;;7.80;99.90;;;;;;6074528;23;20093;-84
2022/12/25 05:10:58;;;;;;;86.30;27.30;;;7.80;99.90;;;;;;6091548;23;20015;-85
2022/12/25 05:13:24;;;;;;;101.55;28.88;;;7.90;99.90;;;;;;6046102;23;20341;-85
2022/12/25 05:15:50;;;;;;;89.97;28.08;;;7.90;99.90;;;;;;6073185;23;20022;-85
2022/12/25 05:18:16;;;;;;;91.93;28.27;;;7.90;99.90;;;;;;6048407;23;20015;-85
2022/12/25 05:20:42;;;;;;;104.70;29.48;;;8.00;99.90;;;;;;6047988;23;20440;-84
2022/12/25 05:23:11;;;;;;;97.68;29.38;;;8.00;99.90;;;;;;6073132;23;20337;-85
2022/12/25 05:25:39;;;;;;;98.88;30.00;;;8.00;99.90;;;;;;6048045;23;20353;-85
2022/12/25 05:28:06;;;;;;;90.95;26.88;;;8.00;99.90;;;;;;6047350;23;20022;-85
2022/12/25 05:30:33;;;;;;;96.45;27.88;;;8.00;99.90;;;;;;6073818;23;20090;-86
2022/12/25 05:32:58;;;;;;;107.15;29.85;;;8.00;99.90;;;;;;6073013;23;20018;-84
2022/12/25 05:35:24;;;;;;;103.80;29.67;;;8.00;99.90;;;;;;6048917;23;20404;-84
2022/12/25 05:37:50;;;;;;;94.15;28.58;;;8.00;99.90;;;;;;6047733;23;20093;-86
2022/12/25 05:40:15;;;;;;;110.15;30.77;;;8.00;99.90;;;;;;6048186;23;20449;-85
2022/12/25 05:42:41;;;;;;;114.22;32.08;;;8.00;99.90;;;;;;6047510;23;20460;-85
2022/12/25 05:45:07;;;;;;;111.53;30.23;;;8.00;99.90;;;;;;6047258;23;20098;-84
2022/12/25 05:47:33;;;;;;;109.18;29.73;;;8.00;99.90;;;;;;6072634;23;20014;-84
2022/12/25 05:49:58;;;;;;;99.97;28.10;;;8.00;99.90;;;;;;6047789;23;20017;-84
2022/12/25 05:52:24;;;;;;;104.45;29.50;;;8.00;99.90;;;;;;6046598;23;20042;-84
2022/12/25 05:54:50;;;;;;;116.63;29.77;;;8.00;99.90;;;;;;6072932;23;20094;-87
2022/12/25 05:57:15;;;;;;;127.82;31.58;;;8.00;99.90;;;;;;6046810;23;20019;-85
2022/12/25 05:59:41;;;;;;;114.20;29.30;;;8.00;99.90;;;;;;6025523;23;20018;-85
2022/12/25 06:02:06;;;;;;;105.38;29.20;;;8.00;99.90;;;;;;6023618;23;20042;-85
2022/12/25 06:04:32;;;;;;;110.22;29.83;;;8.00;99.90;;;;;;6073368;23;20337;-84
2022/12/25 06:06:58;;;;;;;101.05;29.20;;;8.00;99.90;;;;;;6046984;23;20009;-85
2022/12/25 06:09:23;;;;;;;90.55;27.73;;;8.00;99.90;;;;;;6047653;23;20018;-86
2022/12/25 06:11:49;;;;;;;107.95;30.10;;;8.00;99.90;;;;;;6047384;23;20073;-87
2022/12/25 06:14:15;;;;;;;98.70;28.35;;;8.00;99.90;;;;;;6023583;23;20027;-84
2022/12/25 06:16:41;;;;;;;101.68;27.05;;;8.00;99.90;;;;;;6047944;23;20022;-85
2022/12/25 06:19:06;;;;;;;101.63;28.55;;;8.00;99.90;;;;;;6023873;23;20022;-85
2022/12/25 06:21:32;;;;;;;106.05;29.90;;;8.00;99.90;;;;;;6072783;23;20022;-86
2022/12/25 06:23:59;;;;;;;97.78;28.08;;;8.00;99.90;;;;;;6073244;23;20010;-85
2022/12/25 06:26:25;;;;;;;107.72;29.75;;;8.00;99.90;;;;;;6048325;23;20070;-85
2022/12/25 06:28:51;;;;;;;91.43;26.98;;;8.00;99.90;;;;;;6047622;23;20023;-85
2022/12/25 06:31:19;;;;;;;104.55;29.90;;;8.00;99.90;;;;;;6024058;23;20007;-85
2022/12/25 06:33:45;;;;;;;82.32;25.70;;;8.00;99.90;;;;;;6047262;23;20022;-85
2022/12/25 06:36:20;;;;;;;92.22;26.95;;;8.00;99.90;;;;;;6047607;23;20337;-84
2022/12/25 06:38:46;;;;;;;91.85;26.60;;;8.00;99.90;;;;;;6047539;23;20023;-86
2022/12/25 06:41:21;;;;;;;78.60;24.83;;;8.10;99.90;;;;;;6072541;23;20463;-85
2022/12/25 06:43:48;;;;;;;78.38;25.20;;;8.10;99.90;;;;;;6046381;23;20345;-86
2022/12/25 06:46:14;;;;;;;84.57;25.00;;;8.10;99.90;;;;;;6073036;23;20015;-83
2022/12/25 06:48:46;;;;;;;90.82;26.20;;;8.10;99.90;;;;;;6023193;23;20319;-85
2022/12/25 06:51:12;;;;;;;74.07;24.90;;;8.10;99.90;;;;;;6047199;23;20433;-85
2022/12/25 06:53:38;;;;;;;72.68;24.90;;;8.20;99.90;;;;;;6023496;23;20031;-85
2022/12/25 06:56:05;;;;;;;81.20;25.77;;;8.20;99.90;;;;;;6047315;23;20010;-84
2022/12/25 06:58:31;;;;;;;75.30;22.95;;;8.20;99.90;;;;;;6046928;23;20014;-85
2022/12/25 07:00:57;;;;;;;71.97;25.40;;;8.20;99.90;;;;;;6046233;23;20475;-85
2022/12/25 07:03:27;;;;;;;77.22;24.65;;;8.20;99.90;;;;;;6047289;23;20019;-85
2022/12/25 07:05:52;;;;;;;66.82;23.48;;;8.20;99.90;;;;;;6073234;23;20022;-85
2022/12/25 07:08:18;;;;;;;72.57;23.90;;;8.20;99.90;;;;;;6072683;23;20014;-86
2022/12/25 07:10:44;;;;;;;67.15;24.15;;;8.20;99.90;;;;;;6046319;23;20486;-85
2022/12/25 07:13:09;;;;;;;75.95;23.67;;;8.20;99.90;;;;;;6047153;23;20082;-86
2022/12/25 07:15:35;;;;;;;61.85;22.48;;;8.20;99.90;;;;;;6046995;23;20067;-86
2022/12/25 07:18:01;;;;;;;65.65;22.45;;;8.20;99.90;;;;;;6072411;23;20333;-85
2022/12/25 07:20:28;;;;;;;63.70;24.20;;;8.20;99.90;;;;;;6023062;23;20377;-84
2022/12/25 07:22:54;;;;;;;62.20;22.25;;;8.20;99.90;;;;;;6072164;23;20341;-87
2022/12/25 07:25:20;;;;;;;73.25;22.42;;;8.20;99.90;;;;;;6023103;23;20015;-85
2022/12/25 07:27:45;;;;;;;63.38;21.67;;;8.20;99.90;;;;;;6045881;23;20030;-85
2022/12/25 07:30:11;;;;;;;67.95;22.55;;;8.20;99.90;;;;;;6071004;23;20337;-86
2022/12/25 07:32:37;;;;;;;64.25;21.75;;;8.20;99.90;;;;;;6071410;23;20018;-86
2022/12/25 07:35:03;;;;;;;74.55;22.00;;;8.20;99.90;;;;;;6045440;23;20014;-87
2022/12/25 07:37:28;;;;;;;63.75;21.75;;;8.20;99.90;;;;;;6045146;23;20039;-85
2022/12/25 07:39:54;;;;;;;66.97;22.42;;;8.30;99.90;;;;;;6046962;23;20062;-87
2022/12/25 07:42:20;;;;;;;63.83;23.02;;;8.30;99.90;;;;;;6072017;23;20010;-86
2022/12/25 07:44:45;;;;;;;56.70;21.08;;;8.30;99.90;;;;;;6071310;23;20010;-86
2022/12/25 07:47:13;;;;;;;65.90;21.92;;;8.30;99.90;;;;;;6022140;23;20042;-87
2022/12/25 07:49:39;;;;;;;56.47;21.52;;;8.30;99.90;;;;;;6072294;23;20034;-82
2022/12/25 07:52:04;;;;;;;61.95;21.20;;;8.30;99.90;;;;;;6046333;23;20019;-84
2022/12/25 07:54:30;;;;;;;53.17;20.05;;;8.30;99.90;;;;;;6045470;23;20022;-81
2022/12/25 07:56:56;;;;;;;56.17;19.45;;;8.30;99.90;;;;;;6071720;23;20333;-87
2022/12/25 07:59:22;;;;;;;56.05;19.35;;;8.30;99.90;;;;;;6046992;23;20027;-88
2022/12/25 08:01:49;;;;;;;51.42;19.90;;;8.30;99.90;;;;;;6047233;23;20017;-87
2022/12/25 08:04:14;;;;;;;40.85;17.73;;;8.30;99.90;;;;;;6023613;23;20098;-88
2022/12/25 08:06:40;;;;;;;51.28;19.58;;;8.30;99.90;;;;;;6048654;23;20335;-86
2022/12/25 08:09:08;;;;;;;54.13;19.23;;;8.30;99.90;;;;;;6071208;23;20021;-87
2022/12/25 08:11:34;;;;;;;45.70;16.83;;;8.30;99.90;;;;;;6072832;23;20011;-85
2022/12/25 08:14:00;;;;;;;50.47;17.77;;;8.30;99.90;;;;;;6071934;23;20025;-87
2022/12/25 08:16:27;;;;;;;51.40;17.85;;;8.30;99.90;;;;;;6023556;23;20066;-88
2022/12/25 08:18:53;;;;;;;45.95;16.85;;;8.30;99.90;;;;;;6046829;23;20450;-85
2022/12/25 08:21:19;;;;;;;47.03;18.20;;;8.30;99.90;;;;;;6046548;23;20019;-87
2022/12/25 08:23:46;;;;;;;45.75;18.10;;;8.40;99.90;;;;;;6046680;23;20019;-87
2022/12/25 08:26:17;;;;;;;43.70;17.13;;;8.30;99.90;;;;;;6072489;23;20019;-89
2022/12/25 08:28:43;;;;;;;44.70;16.17;;;8.30;99.90;;;;;;6047542;23;20475;-88
2022/12/25 08:31:14;;;;;;;43.28;17.80;;;8.30;99.90;;;;;;6047539;23;20122;-89
2022/12/25 08:33:40;;;;;;;40.92;16.25;;;8.30;99.90;;;;;;6048193;23;20038;-88
2022/12/25 08:36:08;;;;;;;43.78;17.27;;;8.30;99.90;;;;;;6071421;23;20011;-85
2022/12/25 08:38:34;;;;;;;51.88;17.92;;;8.30;99.90;;;;;;6069651;23;20386;-86
2022/12/25 08:41:00;;;;;;;39.83;15.50;;;8.40;99.90;;;;;;6022837;23;20409;-86
2022/12/25 08:43:26;;;;;;;41.08;16.92;;;8.30;99.90;;;;;;6045998;23;20022;-86
2022/12/25 08:45:52;;;;;;;39.00;15.00;;;8.30;99.90;;;;;;6072267;23;20015;-88
2022/12/25 08:48:17;;;;;;;37.20;15.98;;;8.40;99.90;;;;;;6023504;23;20019;-87
2022/12/25 08:50:48;;;;;;;40.13;16.85;;;8.40;99.90;;;;;;6075137;23;20345;-85
2022/12/25 08:53:14;;;;;;;39.60;16.45;;;8.40;99.90;;;;;;6075342;23;20018;-88
2022/12/25 08:55:40;;;;;;;39.15;16.30;;;8.40;99.90;;;;;;6073095;23;20099;-87
2022/12/25 08:58:06;;;;;;;40.10;13.90;;;8.40;99.90;;;;;;6048682;23;20019;-87
2022/12/25 09:00:32;;;;;;;43.88;16.15;;;8.40;99.90;;;;;;6072105;23;20026;-85
2022/12/25 09:02:57;;;;;;;38.92;15.57;;;8.40;99.90;;;;;;6049196;23;20018;-86
2022/12/25 09:05:23;;;;;;;39.25;16.20;;;8.40;99.90;;;;;;6048143;23;20015;-86
2022/12/25 09:07:49;;;;;;;42.83;17.13;;;8.40;99.90;;;;;;6025606;23;20023;-88
2022/12/25 09:10:14;;;;;;;37.55;14.73;;;8.40;99.90;;;;;;6048467;23;20019;-86
2022/12/25 09:12:40;;;;;;;35.83;14.70;;;8.40;99.90;;;;;;6075809;23;20006;-85
2022/12/25 09:15:06;;;;;;;41.35;16.17;;;8.40;99.90;;;;;;6049874;23;19991;-89
2022/12/25 09:17:32;;;;;;;36.63;14.98;;;8.40;99.90;;;;;;6025616;23;20425;-88
2022/12/25 09:19:57;;;;;;;31.55;14.32;;;8.40;99.90;;;;;;6053014;23;20038;-85
2022/12/25 09:22:23;;;;;;;31.30;13.38;;;8.40;99.90;;;;;;6074966;23;20059;-87
2022/12/25 09:24:49;;;;;;;36.40;15.02;;;8.40;99.90;;;;;;6023826;23;20014;-84
2022/12/25 09:27:14;;;;;;;30.30;14.13;;;8.40;99.90;;;;;;6048281;23;20055;-85
2022/12/25 09:29:40;;;;;;;32.35;14.07;;;8.40;99.90;;;;;;6073562;23;20015;-89
2022/12/25 09:32:06;;;;;;;33.67;15.10;;;8.40;99.90;;;;;;6049150;23;20007;-85
2022/12/25 09:34:32;;;;;;;41.00;15.27;;;8.40;99.90;;;;;;6048688;23;20030;-87
2022/12/25 09:36:57;;;;;;;30.98;14.82;;;8.40;99.90;;;;;;6024833;23;20016;-86
2022/12/25 09:39:23;;;;;;;30.33;13.65;;;8.40;99.90;;;;;;6075068;23;20006;-85
2022/12/25 09:42:06;;;;;;;41.08;14.82;;;8.50;99.90;;;;;;6025250;23;20014;-88
2022/12/25 09:44:43;;;;;;;37.90;15.40;;;8.50;99.90;;;;;;6051419;23;20022;-87
2022/12/25 09:47:15;;;;;;;37.45;15.43;;;8.50;99.90;;;;;;6063608;23;20038;-88
2022/12/25 09:50:12;;;;;;;40.75;16.90;;;8.50;99.90;;;;;;6092985;23;20063;-86
2022/12/25 09:52:59;;;;;;;35.47;14.88;;;8.50;99.90;;;;;;6071238;23;20015;-86
2022/12/25 09:55:28;;;;;;;38.88;16.67;;;8.40;99.90;;;;;;6057359;23;20019;-86
2022/12/25 09:57:59;;;;;;;34.63;15.85;;;8.40;99.90;;;;;;6078974;23;20059;-85
2022/12/25 10:00:35;;;;;;;42.45;15.95;;;8.40;99.90;;;;;;6082818;23;20023;-85
2022/12/25 10:03:36;;;;;;;40.35;14.95;;;8.40;99.90;;;;;;6053151;23;20037;-86
2022/12/25 10:06:33;;;;;;;46.00;14.80;;;8.40;99.90;;;;;;6046725;23;20370;-88
2022/12/25 10:09:29;;;;;;;37.85;15.32;;;8.40;99.90;;;;;;6050759;23;20019;-88
2022/12/25 10:12:22;;;;;;;41.03;15.10;;;8.40;99.90;;;;;;6078464;23;20015;-88
2022/12/25 10:15:05;;;;;;;37.72;15.63;;;8.40;99.90;;;;;;6076138;23;20130;-86
2022/12/25 10:18:02;;;;;;;35.70;14.80;;;8.40;99.90;;;;;;6050186;23;20015;-88
2022/12/25 10:20:36;;;;;;;37.15;14.07;;;8.40;99.90;;;;;;6074941;23;20075;-86
2022/12/25 10:23:08;;;;;;;33.85;13.52;;;8.40;99.90;;;;;;6076174;23;20026;-88
2022/12/25 10:25:37;;;;;;;41.78;14.93;;;8.40;99.90;;;;;;6050772;23;20006;-85
2022/12/25 10:28:10;;;;;;;30.10;14.38;;;8.40;99.90;;;;;;6050607;23;20011;-84
2022/12/25 10:30:38;;;;;;;35.47;14.18;;;8.40;99.90;;;;;;6029068;23;20018;-86
2022/12/25 10:33:04;;;;;;;33.88;14.88;;;8.40;99.90;;;;;;6048510;23;20018;-86
2022/12/25 10:35:31;;;;;;;35.30;14.30;;;8.40;99.90;;;;;;6047490;23;20019;-84
2022/12/25 10:38:01;;;;;;;34.42;13.68;;;8.50;99.90;;;;;;6046700;23;20018;-87
2022/12/25 10:40:53;;;;;;;34.90;13.65;;;8.40;99.90;;;;;;6072688;23;20026;-87
2022/12/25 10:43:38;;;;;;;34.08;14.70;;;8.50;99.90;;;;;;6047198;23;20094;-85
2022/12/25 10:46:12;;;;;;;33.33;13.93;;;8.50;99.90;;;;;;6071662;23;19998;-85
2022/12/25 10:48:59;;;;;;;32.45;13.57;;;8.50;99.90;;;;;;6047457;23;20011;-88
2022/12/25 10:51:36;;;;;;;32.67;12.68;;;8.50;99.90;;;;;;6072686;23;20023;-76
2022/12/25 10:54:23;;;;;;;33.70;13.10;;;8.50;99.90;;;;;;6044894;23;20341;-84
2022/12/25 10:57:15;;;;;;;26.20;12.57;;;8.50;99.90;;;;;;6046332;23;20015;-84
2022/12/25 10:59:47;;;;;;;31.23;13.45;;;8.60;99.90;;;;;;6072264;23;20018;-85
2022/12/25 11:02:19;;;;;;;27.23;12.63;;;8.60;99.90;;;;;;6045527;23;20035;-86
2022/12/25 11:04:44;;;;;;;33.05;13.80;;;8.60;99.90;;;;;;6071523;23;20011;-88
2022/12/25 11:07:22;;;;;;;31.50;13.45;;;8.60;99.90;;;;;;6045532;23;20416;-86
2022/12/25 11:09:55;;;;;;;29.25;12.48;;;8.60;99.90;;;;;;6045245;23;20041;-85
2022/12/25 11:12:33;;;;;;;26.80;12.25;;;8.60;99.90;;;;;;6044737;23;20088;-88
2022/12/25 11:15:03;;;;;;;29.38;12.93;;;8.60;99.90;;;;;;6045207;23;20044;-87
2022/12/25 11:17:29;;;;;;;28.20;11.43;;;8.60;99.90;;;;;;6071114;23;20018;-85
2022/12/25 11:19:59;;;;;;;26.38;11.60;;;8.70;99.90;;;;;;6045261;23;20023;-85
2022/12/25 11:22:26;;;;;;;27.73;10.73;;;8.70;99.90;;;;;;6045495;23;20345;-85
2022/12/25 11:24:54;;;;;;;23.95;10.48;;;8.70;99.90;;;;;;6022360;23;20079;-82
2022/12/25 11:27:25;;;;;;;29.58;10.02;;;8.70;99.90;;;;;;6046506;23;20048;-85
2022/12/25 11:29:58;;;;;;;25.52;10.65;;;8.70;99.90;;;;;;6046183;23;20015;-85
2022/12/25 11:32:42;;;;;;;25.80;10.90;;;8.80;99.90;;;;;;6046090;23;20097;-86
2022/12/25 11:35:14;;;;;;;28.55;11.48;;;8.80;99.90;;;;;;6045145;23;20026;-86
2022/12/25 11:37:49;;;;;;;25.02;10.32;;;8.80;99.90;;;;;;6045902;23;20019;-85
2022/12/25 11:40:16;;;;;;;;;;;8.80;99.90;;;;;;6046127;23;20102;-86
2022/12/25 11:42:51;;;;;;;25.90;11.10;;;8.90;99.90;;;;;;6045712;23;19914;-86
2022/12/25 11:45:33;;;;;;;26.67;10.02;;;8.80;99.90;;;;;;6045835;23;20468;-84
2022/12/25 11:48:12;;;;;;;24.85;10.20;;;8.90;99.90;;;;;;6046423;23;20022;-84
2022/12/25 11:50:43;;;;;;;24.73;9.85;;;8.90;99.90;;;;;;6046149;23;20019;-86
2022/12/25 11:53:50;;;;;;;23.80;10.43;;;8.90;99.90;;;;;;6045507;23;20027;-86
2022/12/25 11:56:27;;;;;;;23.55;11.00;;;8.90;99.90;;;;;;6071508;23;20051;-85
2022/12/25 11:58:52;;;;;;;22.08;9.60;;;8.90;99.90;;;;;;6045707;23;20015;-84
2022/12/25 12:01:37;;;;;;;32.72;11.10;;;8.90;99.90;;;;;;6045461;23;20021;-85
2022/12/25 12:04:19;;;;;;;25.50;11.20;;;8.90;99.90;;;;;;6045292;23;20017;-85
2022/12/25 12:06:59;;;;;;;22.23;9.52;;;9.00;99.90;;;;;;6046126;23;20341;-86
2022/12/25 12:09:37;;;;;;;25.17;10.50;;;9.00;99.90;;;;;;6045586;23;20045;-85
2022/12/25 12:12:29;;;;;;;21.83;9.70;;;8.90;99.90;;;;;;6045548;23;20053;-85
2022/12/25 12:14:59;;;;;;;24.52;9.50;;;9.00;99.90;;;;;;6045079;23;20078;-86
2022/12/25 12:17:25;;;;;;;21.45;9.82;;;9.00;99.90;;;;;;6045231;23;20022;-86
2022/12/25 12:19:51;;;;;;;21.50;10.18;;;9.10;99.90;;;;;;6021805;23;20015;-87
2022/12/25 12:22:27;;;;;;;23.35;9.90;;;9.10;99.90;;;;;;6070523;23;20021;-85
2022/12/25 12:25:04;;;;;;;27.40;9.70;;;9.00;99.90;;;;;;6045637;23;20018;-83
2022/12/25 12:27:39;;;;;;;20.38;9.00;;;9.00;99.90;;;;;;6070156;23;20512;-84
2022/12/25 12:30:06;;;;;;;23.27;9.60;;;9.00;99.90;;;;;;6044610;23;20385;-84
2022/12/25 12:32:39;;;;;;;22.45;10.50;;;9.00;99.90;;;;;;6045123;23;20015;-84
2022/12/25 12:35:32;;;;;;;23.90;9.98;;;9.10;99.90;;;;;;6043970;23;20022;-86
2022/12/25 12:38:11;;;;;;;22.40;9.35;;;9.10;99.90;;;;;;6044901;23;20043;-85
2022/12/25 12:40:43;;;;;;;23.45;9.82;;;9.10;99.90;;;;;;6070122;23;20015;-86
2022/12/25 12:43:35;;;;;;;23.85;10.05;;;9.10;99.90;;;;;;6070370;23;20015;-84
2022/12/25 12:46:20;;;;;;;22.30;9.77;;;9.10;99.90;;;;;;6070267;23;20130;-85
2022/12/25 12:48:52;;;;;;;23.33;9.15;;;9.10;99.90;;;;;;6044739;23;20046;-84
2022/12/25 12:51:35;;;;;;;21.88;9.20;;;9.10;99.90;;;;;;6045313;23;20015;-84
2022/12/25 12:54:23;;;;;;;25.38;9.32;;;9.10;99.90;;;;;;6070579;23;20082;-85
2022/12/25 12:57:06;;;;;;;21.77;8.43;;;9.10;99.90;;;;;;6045427;23;20070;-85
2022/12/25 12:59:38;;;;;;;24.02;9.00;;;9.10;99.90;;;;;;6045585;23;20015;-85
2022/12/25 13:02:25;;;;;;;20.05;9.75;;;9.10;99.90;;;;;;6045539;23;20015;-87
2022/12/25 13:04:53;;;;;;;22.63;9.27;;;9.10;99.90;;;;;;6045480;23;20019;-86
2022/12/25 13:07:43;;;;;;;16.15;8.90;;;9.10;99.90;;;;;;6045724;23;20026;-85
2022/12/25 13:10:29;;;;;;;22.60;9.43;;;9.10;99.90;;;;;;6046037;23;20015;-85
2022/12/25 13:13:09;;;;;;;26.50;9.35;;;9.10;99.90;;;;;;6046362;23;20050;-86
2022/12/25 13:15:35;;;;;;;20.13;9.57;;;9.10;99.90;;;;;;6044894;23;20022;-87
2022/12/25 13:18:04;;;;;;;21.27;9.45;;;9.10;99.90;;;;;;6045963;23;20015;-87
2022/12/25 13:20:44;;;;;;;20.23;8.98;;;9.10;99.90;;;;;;6071625;23;20015;-87
2022/12/25 13:23:28;;;;;;;21.35;8.98;;;9.10;99.90;;;;;;6071749;23;20081;-86
2022/12/25 13:26:10;;;;;;;22.35;10.52;;;9.10;99.90;;;;;;6022230;23;20019;-89
2022/12/25 13:28:36;;;;;;;23.63;9.50;;;9.10;99.90;;;;;;6021651;23;20015;-87
2022/12/25 13:31:04;;;;;;;27.30;11.30;;;9.10;99.90;;;;;;6022066;23;20079;-86
2022/12/25 13:33:30;;;;;;;20.15;11.02;;;9.10;99.90;;;;;;6046089;23;20071;-85
2022/12/25 13:35:56;;;;;;;25.85;12.02;;;9.10;99.90;;;;;;6047705;23;20054;-87
2022/12/25 13:38:24;;;;;;;27.15;12.05;;;9.10;99.90;;;;;;6025005;23;20023;-86
2022/12/25 13:43:38;;;;;;;24.60;12.10;;;9.10;99.90;;;;;;6048490;23;20070;-85
2022/12/25 13:46:04;;;;;;;25.10;12.95;;;9.10;99.90;;;;;;6072693;23;20498;-86
2022/12/25 13:48:30;;;;;;;31.42;14.75;;;9.00;99.90;;;;;;6048249;23;20345;-85
2022/12/25 13:51:00;;;;;;;25.42;13.52;;;9.00;99.90;;;;;;6048062;23;20025;-85
2022/12/25 13:53:26;;;;;;;29.42;14.15;;;9.00;99.90;;;;;;6072306;23;20321;-85
2022/12/25 13:55:54;;;;;;;30.35;15.27;;;9.00;99.90;;;;;;6048552;23;20018;-86
2022/12/25 13:58:27;;;;;;;28.15;14.50;;;9.00;99.90;;;;;;6048972;23;20093;-87
2022/12/25 14:00:56;;;;;;;33.05;14.80;;;9.10;99.90;;;;;;6025168;23;20019;-85
2022/12/25 14:03:39;;;;;;;31.42;15.15;;;9.00;99.90;;;;;;6025409;23;20014;-86
2022/12/25 14:06:26;;;;;;;25.25;13.90;;;9.00;99.90;;;;;;6074282;23;20015;-85
2022/12/25 14:08:54;;;;;;;30.92;15.13;;;9.00;99.90;;;;;;6074731;23;20105;-85
2022/12/25 14:11:23;;;;;;;33.20;15.23;;;9.00;99.90;;;;;;6074060;23;19999;-86
2022/12/25 14:13:55;;;;;;;45.63;17.20;;;9.00;99.90;;;;;;6048874;23;20094;-86
2022/12/25 14:16:21;;;;;;;38.72;18.27;;;9.00;99.90;;;;;;6074048;23;20010;-86
2022/12/25 14:18:56;;;;;;;31.20;16.52;;;9.00;99.90;;;;;;6073975;23;20015;-85
2022/12/25 14:21:37;;;;;;;36.90;18.15;;;8.90;99.90;;;;;;6048573;23;20453;-87
2022/12/25 14:24:10;;;;;;;37.65;16.70;;;8.90;99.90;;;;;;6048226;23;20018;-86
2022/12/25 14:26:36;;;;;;;34.72;16.25;;;8.90;99.90;;;;;;6072067;23;20461;-87
2022/12/25 14:29:06;;;;;;;39.13;21.10;;;8.90;99.90;;;;;;6048258;23;20015;-86
2022/12/25 14:31:33;;;;;;;36.85;17.63;;;8.90;99.90;;;;;;6049172;23;20015;-87
2022/12/25 14:34:04;;;;;;;40.63;23.02;;;8.90;99.90;;;;;;6060491;23;20015;-86
2022/12/25 14:36:32;;;;;;;50.67;25.55;;;8.90;99.90;;;;;;6069340;23;20091;-86
2022/12/25 14:39:02;;;;;;;44.15;21.08;;;8.90;99.90;;;;;;6061329;23;20018;-87
2022/12/25 14:41:35;;;;;;;57.72;30.73;;;8.90;99.90;;;;;;6074986;23;20014;-88
2022/12/25 14:44:05;;;;;;;36.35;18.08;;;8.90;99.90;;;;;;6025351;23;20018;-88
2022/12/25 14:46:32;;;;;;;46.28;21.63;;;8.80;99.90;;;;;;6047649;23;20010;-83
2022/12/25 14:49:03;;;;;;;48.60;21.85;;;8.90;99.90;;;;;;6023024;23;20078;-87
2022/12/25 14:51:30;;;;;;;41.72;20.45;;;8.90;99.90;;;;;;6046974;23;20011;-86
2022/12/25 14:53:58;;;;;;;41.33;19.17;;;8.90;99.90;;;;;;6072470;23;20019;-87
2022/12/25 14:56:26;;;;;;;39.25;18.55;;;8.80;99.90;;;;;;6072461;23;20089;-84
2022/12/25 14:58:55;;;;;;;37.13;18.52;;;8.80;99.90;;;;;;6047086;23;20013;-87
2022/12/25 15:01:34;;;;;;;38.53;18.98;;;8.80;99.90;;;;;;6047238;23;20094;-84
2022/12/25 15:04:08;;;;;;;41.45;19.65;;;8.80;99.90;;;;;;6072454;23;20043;-84
2022/12/25 15:06:35;;;;;;;37.00;18.37;;;8.90;99.90;;;;;;6047162;23;20005;-83
2022/12/25 15:09:12;;;;;;;43.05;21.67;;;8.80;99.90;;;;;;6022643;23;20267;-83
2022/12/25 15:15:23;;;;;;;50.88;26.70;;;8.90;99.90;;;;;;6027039;23;20074;-85
2022/12/25 15:17:49;;;;;;;43.15;20.45;;;8.80;99.90;;;;;;6071596;23;20061;-82
2022/12/25 15:20:50;;;;;;;54.10;24.73;;;8.80;99.90;;;;;;6065906;23;20075;-84
2022/12/25 15:23:15;;;;;;;52.55;23.23;;;8.80;99.90;;;;;;6075139;23;20029;-84
2022/12/25 15:25:41;;;;;;;48.63;22.77;;;8.80;99.90;;;;;;6045428;23;20046;-84
2022/12/25 15:28:32;;;;;;;47.08;21.67;;;8.80;99.90;;;;;;6048985;23;20022;-85
2022/12/25 15:31:01;;;;;;;43.17;21.63;;;8.80;99.90;;;;;;6045359;23;20046;-84
2022/12/25 15:33:26;;;;;;;42.05;21.27;;;8.80;99.90;;;;;;6070651;23;20011;-84
2022/12/25 15:37:09;;;;;;;49.78;23.17;;;8.80;99.90;;;;;;6045144;23;20019;-84
2022/12/25 15:43:59;;;;;;;52.80;23.52;;;8.80;99.90;;;;;;6072552;23;20369;-82
2022/12/25 15:46:41;;;;;;;48.80;22.45;;;8.80;99.90;;;;;;5933429;23;20029;-84
2022/12/25 15:49:49;;;;;;;47.28;22.50;;;8.80;99.90;;;;;;6074676;23;20311;-82
2022/12/25 15:56:38;;;;;;;47.47;20.70;;;8.70;99.90;;;;;;5983449;24;20585;-82
2022/12/25 15:59:13;;;;;;;48.40;22.58;;;8.70;99.90;;;;;;5940971;24;20095;-82
2022/12/25 16:01:50;;;;;;;43.88;22.23;;;8.70;99.90;;;;;;5954144;24;20381;-85
2022/12/25 16:04:15;;;;;;;55.42;23.35;;;8.70;99.90;;;;;;5956378;24;20084;-82
2022/12/25 16:06:41;;;;;;;53.97;22.92;;;8.70;99.90;;;;;;5966549;23;20387;-82
2022/12/25 16:09:34;;;;;;;57.20;23.15;;;8.70;99.90;;;;;;6014936;23;20042;-84
2022/12/25 16:11:59;;;;;;;55.60;23.65;;;8.70;99.90;;;;;;5905798;23;20150;-82
2022/12/25 16:14:25;;;;;;;48.55;21.35;;;8.70;99.90;;;;;;6039072;23;20449;-82
2022/12/25 16:16:51;;;;;;;55.38;23.13;;;8.70;99.90;;;;;;6038696;23;20016;-82
2022/12/25 16:19:16;;;;;;;50.10;22.67;;;8.70;99.90;;;;;;5991913;23;20019;-83
2022/12/25 16:21:44;;;;;;;47.28;21.38;;;8.70;99.90;;;;;;6038395;23;20139;-85
2022/12/25 16:24:11;;;;;;;48.53;22.13;;;8.80;99.90;;;;;;6014613;23;20098;-81
2022/12/25 16:26:36;;;;;;;56.15;22.35;;;8.70;99.90;;;;;;6038670;23;20558;-85
2022/12/25 16:29:03;;;;;;;54.38;23.35;;;8.70;99.90;;;;;;6041993;23;20019;-81
2022/12/25 16:31:29;;;;;;;50.80;22.88;;;8.70;99.90;;;;;;6073616;23;20509;-84
2022/12/25 16:34:31;;;;;;;;;;;;;;;;;;;;;
2022/12/25 16:37:12;;;;;;;54.78;22.85;;;8.70;99.90;;;;;;6098725;23;20094;-83
2022/12/25 16:39:47;;;;;;;56.17;26.13;;;8.70;99.90;;;;;;6049827;23;20021;-82
2022/12/25 16:42:13;;;;;;;62.55;25.17;;;8.60;99.90;;;;;;6098385;23;20015;-80
2022/12/25 16:44:38;;;;;;;66.90;26.65;;;8.70;99.90;;;;;;6099160;23;20546;-83
2022/12/25 16:47:04;;;;;;;73.03;29.00;;;8.70;99.90;;;;;;6073185;23;20449;-81
2022/12/25 16:49:30;;;;;;;73.55;33.42;;;8.70;99.90;;;;;;6073914;23;20022;-80
2022/12/25 16:51:55;;;;;;;74.97;33.33;;;8.70;99.90;;;;;;6072928;23;20014;-83
2022/12/25 16:54:21;;;;;;;82.10;35.35;;;8.70;99.90;;;;;;6073047;23;20433;-83
2022/12/25 16:56:47;;;;;;;67.28;31.38;;;8.60;99.90;;;;;;6073317;23;20014;-82
2022/12/25 16:59:12;;;;;;;65.35;27.70;;;8.70;99.90;;;;;;6072879;23;20018;-81
2022/12/25 17:01:42;;;;;;;58.00;25.80;;;8.70;99.90;;;;;;6098495;23;20065;-81
2022/12/25 17:04:11;;;;;;;80.50;28.38;;;8.60;99.90;;;;;;6049017;23;20026;-83
2022/12/25 17:06:37;;;;;;;64.75;26.27;;;8.70;99.90;;;;;;6048320;23;20093;-82
2022/12/25 17:09:03;;;;;;;77.30;32.40;;;8.60;99.90;;;;;;6048306;23;20089;-80
2022/12/25 17:30:01;;;;;;;89.20;32.22;;;8.60;99.90;;;;;;6085867;23;20030;-82
2022/12/25 17:32:30;;;;;;;144.48;42.90;;;8.60;99.90;;;;;;6074567;23;20014;-82
2022/12/25 17:35:44;;;;;;;;;;;;;;;;;;;;;
2022/12/25 17:43:06;;;;;;;101.78;33.55;;;8.60;99.90;;;;;;5976376;23;20084;-82
2022/12/25 17:45:36;;;;;;;133.52;34.45;;;8.60;99.90;;;;;;5960282;24;20031;-82
2022/12/25 17:48:07;;;;;;;119.22;38.03;;;8.50;99.90;;;;;;5960069;24;20021;-82
2022/12/25 17:50:33;;;;;;;120.93;40.38;;;8.50;99.90;;;;;;6049333;23;21738;-82
2022/12/25 17:53:11;;;;;;;;;;;;;;;;;;;;;
2022/12/25 17:55:39;;;;;;;127.47;41.25;;;8.50;99.90;;;;;;6074025;23;20065;-82
2022/12/25 17:58:06;;;;;;;102.28;33.22;;;8.60;99.90;;;;;;6100234;23;20018;-81
2022/12/25 18:00:32;;;;;;;138.73;51.03;;;8.50;99.90;;;;;;6101010;23;20018;-83
2022/12/25 18:02:59;;;;;;;196.35;47.03;;;8.50;99.90;;;;;;6051877;23;20122;-83
2022/12/25 18:05:25;;;;;;;163.60;47.33;;;8.60;99.90;;;;;;6076003;23;20025;-82
2022/12/25 18:07:53;;;;;;;150.70;49.67;;;8.60;99.90;;;;;;6101941;23;20011;-83
2022/12/25 18:10:21;;;;;;;132.85;40.80;;;8.50;99.90;;;;;;6076803;23;20014;-84
2022/12/25 18:12:47;;;;;;;131.63;36.45;;;8.60;99.90;;;;;;6102120;23;20512;-83
2022/12/25 18:15:13;;;;;;;122.65;36.03;;;8.60;99.90;;;;;;6101083;23;20042;-83
2022/12/25 18:17:39;;;;;;;149.27;39.78;;;8.60;99.90;;;;;;6075903;23;20057;-82
2022/12/25 18:20:34;;;;;;;;;;;;;;;;;;;;;
2022/12/25 18:23:06;;;;;;;139.82;37.75;;;8.60;99.90;;;;;;6075317;23;20074;-84
2022/12/25 18:25:32;;;;;;;145.95;43.67;;;8.60;99.90;;;;;;6076743;23;20018;-84
2022/12/25 18:28:04;;;;;;;161.23;42.95;;;8.60;99.90;;;;;;6101610;23;20074;-84
2022/12/25 18:30:33;;;;;;;151.98;36.90;;;8.60;99.90;;;;;;6051480;23;20511;-85
2022/12/25 18:33:26;;;;;;;143.50;37.92;;;8.60;99.90;;;;;;6076222;23;20463;-84
2022/12/25 18:40:26;;;;;;;151.63;37.90;;;8.60;99.90;;;;;;6100424;23;20022;-84
2022/12/25 18:50:09;;;;;;;189.88;49.72;;;8.60;99.90;;;;;;6086591;23;20033;-84
2022/12/25 18:52:39;;;;;;;234.93;46.17;;;8.60;99.90;;;;;;6075643;23;20011;-83